• Join FlightAware (Why Join?)
  • Login
  • US Flag 
10:23PM EDT


 

Airport Tracker/Info


-or-


 

Live Flight TrackerFlight Track Log ✈ USC105 ✈ 08-May-2013 ✈ KYIP - KLCK

Flight Track Log - Related Links

Times and Time Zones

All times are in EDT time to prevent confusion due to time zone crossing. See the USC105 flight status page for this flight to view local times or setup timezone preferences in your user account.

Time Position Orientation Groundspeed Altitude Reporting Facility
EDT Latitude Longitude Course Direction KTS MPH feet Rate Location/Type
06:58AM 42.2311 -83.5922 249° West 146 168 2,700  Level Cleveland Center
06:59AM 42.2111 -83.6389 240° Southwest 140 161 4,000 1,140 Climbing Cleveland Center
07:00AM 42.1792 -83.6628 209° Southwest 148 170 5,000 540 Climbing Cleveland Center
07:01AM 42.1367 -83.6969 211° Southwest 192 221 5,100  Climbing Cleveland Center
07:02AM 42.0919 -83.7283 208° Southwest 195 224 5,100 240 Level Cleveland Center
07:03AM 42.0417 -83.7344 185° South 182 209 5,600 840 Climbing Cleveland Center
07:04AM 41.9942 -83.7181 166° South 156 180 6,900 720 Climbing Cleveland Center
07:05AM 41.9467 -83.7017 166° South 200 230 7,100  Climbing Cleveland Center
07:07AM 41.8980 -83.6834 164° South  Level Estimated
07:14AM 41.6142 -83.5776 164° South  Level Estimated
07:15AM 41.5736 -83.5625 164° South  Level Estimated
07:16AM 41.5331 -83.5475 164° South  Level Estimated
07:17AM 41.4925 -83.5325 165° South  Level Estimated
07:18AM 41.4520 -83.5175 165° South  Level Estimated
07:19AM 41.4114 -83.5025 165° South  Level Estimated
07:20AM 41.3708 -83.4876 165° South  Level Estimated
07:21AM 41.3302 -83.4726 165° South  Level Estimated
07:22AM 41.2897 -83.4577 165° South  Level Estimated
07:23AM 41.2491 -83.4428 165° South  Level Estimated
07:24AM 41.2085 -83.4280 165° South  Level Estimated
07:25AM 41.1680 -83.4131 165° South  Level Estimated
07:26AM 41.1274 -83.3983 165° South  Level Estimated
07:27AM 41.0868 -83.3834 165° South  Level Estimated
07:28AM 41.0462 -83.3686 165° South  Level Estimated
07:29AM 41.0056 -83.3539 165° South  Level Estimated
07:30AM 40.9651 -83.3391 165° South  Level Estimated
07:31AM 40.9245 -83.3243 165° South  Level Estimated
07:32AM 40.8839 -83.3096 165° South  Level Estimated
07:33AM 40.8433 -83.2949 165° South  Level Estimated
07:34AM 40.8027 -83.2802 165° South  Level Estimated
07:35AM 40.7621 -83.2655 165° South  Level Estimated
07:35AM 40.3725 -83.1306 165° South 202 232 7,000  Level Indianapolis Center
07:36AM 40.7215 -83.2508 165° South  Level Estimated
07:36AM 40.3175 -83.1103 164° South 205 236 7,000  Level Indianapolis Center
07:37AM 40.6809 -83.2362 165° South  Level Estimated
07:37AM 40.2644 -83.0906 164° South 201 231 7,000  Level Indianapolis Center
07:38AM 40.6403 -83.2216 165° South  Level Estimated
07:38AM 40.2097 -83.0650 160° South 197 227 7,000  Level Indianapolis Center
07:39AM 40.5997 -83.2070 165° South  Level Estimated
07:39AM 40.1589 -83.0425 161° South 197 227 7,000  Level Indianapolis Center
07:40AM 40.5591 -83.1924 165° South  Level Estimated
07:40AM 40.1217 -83.0056 143° Southeast 167 192 7,000  Level Indianapolis Center
07:41AM 40.1175 -82.9450 95° East 163 188 6,900 -300 Descending Indianapolis Center
07:42AM 40.0739 -82.9075 147° Southeast 209 241 6,400 -540 Descending Indianapolis Center
07:43AM 40.0211 -82.8822 160° South 208 239 5,900 -840 Descending Indianapolis Center
07:44AM 39.9661 -82.8597 163° South 214 246 4,700 -960 Descending Indianapolis Center
07:45AM 39.9225 -82.8222 147° Southeast 206 237 4,000 -660 Descending Indianapolis Center
07:46AM 39.8744 -82.8250 183° South 195 224 3,400 -720 Descending Indianapolis Center
07:47AM 39.8772 -82.8442 281° West 178 205 2,600 -840 Descending Indianapolis Center
07:48AM 39.8386 -82.8925 224° Southwest 187 215 1,700 -660 Descending Indianapolis Center
07:49AM 39.8100 -82.9269 223° Southwest 180 207 1,300 -420 Descending Indianapolis Center
07:51AM 39.8138 -82.9278 199° South  Level Estimated